Airfield :
LOGIN :

Register | Disclaimer

   EN    FR    IT 

 










Legend :    VFR   Marginal VFR   IFR   Intensive IFR   Very Intensive IFR
Visi :
Ceiling :
>= 8 km
>= 3000ft
5 to 8 km
1000 to 3000 ft
1500m to 5 km
500 to 1000 ft
800 to 1500m
200 to 500 ft
< 800m
< 200 ft
Symbols :   Thunderstorms  Fog  Heavy snow  Heavy precipitations  Wind > 20 kt
SIGMETs :     Misc.  Thunderstorms  Icing  Turbulence  Mountain Waves  Volcanic Ashes






- Airport Elevation : 359 ft
- IATA code : BVA


LFOB - Beauvais

CURRENT METAR :
  • 090900Z AUTO 31021KT 9999 -RA SCT018/// BKN028/// BKN036/// ///CB 08/06 Q1002 TEMPO 34025G40KT 3000 SHRA

EXPIRED METARs :
  • 090830Z AUTO 29017KT 9999 -RA BKN015/// OVC023/// ///TCU 08/07 Q1001 TEMPO 34025G40KT 3000 SHRA BKN025CB
  • 090800Z AUTO 25012KT 8000 -RA SCT014/// BKN021/// OVC032/// ///CB 07/06 Q1000 TEMPO 34025G40KT 3000 SHRA BKN011 BKN025CB
  • 090730Z AUTO 23015KT 9999 FEW011/// BKN020/// BKN027/// ///CB 07/06 Q0999 TEMPO 34025G40KT 3000 SHRA BKN011 BKN025CB
  • 090700Z AUTO 23014KT 9999 -RA FEW010/// SCT017/// BKN024/// ///TCU 07/06 Q0999 TEMPO 25020G35KT 3000 SHRA BKN011 BKN025CB

TAF AMD TAF LFOB
Valid from the 09 at 06:00 until the 10 at 06:00 UTC


090603Z 0906/1006 25015G25KT 9999 BKN030
TEMPO 0906/0909 25020G35KT 3000 SHRA BKN011 BKN025CB
PROB40
TEMPO 0906/0908 24027G45KT 1300 TSRAGS
BECMG 0909/0911 34020G30KT
TEMPO 0909/0914 34025G40KT 3000 SHRA BKN025CB
BECMG 0916/0918 34015KT
BECMG 0921/0924 VRB02KT
ATIS : +33 3 44 11 49 28



MET'MAP, your aeronautical weather chart ! - Copyright ORBIFLY December 2007 - Disclaimer

ORBIFLY MET'MAP TEAM :

Programming & Development : Alexandra Zaïnal
Concept & original design : Baudouin d'Aumeries
Assistance for programming : Marc-Olivier Méhu
Technical & hardware support : Manuel Goepfert

Contact : metmap@orbifly.com




SOURCES & CREDITS :

   NOAA